Time;durP1;ratioP1;P1;durP2;ratioP2;P2;SDS_P1;SDS_P2;PMS_P1;PMS_P2;Temp;Humidity;BMP_temperature;BMP_pressure;BME280_temperature;BME280_humidity;BME280_pressure;Samples;Min_cycle;Max_cycle;Signal;HPM_P1;HPM_P2
2023/01/24 00:01:47;;;;;;;;;;;;;;;13.10;47.21;100843.47;4472525;32;33099;-64
2023/01/24 00:04:15;;;;;;;;;;;;;;;12.66;48.07;100840.13;4478371;32;34382;-63
2023/01/24 00:06:42;;;;;;;;;;;;;;;12.98;47.36;100845.16;4467157;31;35328;-64
2023/01/24 00:09:09;;;;;;;;;;;;;;;12.90;47.77;100836.75;4475709;32;33299;-65
2023/01/24 00:11:37;;;;;;;;;;;;;;;13.02;47.19;100835.94;4477330;32;34349;-64
2023/01/24 00:14:04;;;;;;;;;;;;;;;12.95;47.64;100843.53;4478375;32;33821;-64
2023/01/24 00:16:32;;;;;;;;;;;;;;;12.92;47.60;100842.91;4478474;32;32938;-66
2023/01/24 00:18:59;;;;;;;;;;;;;;;12.96;47.20;100839.88;4474702;32;32544;-67
2023/01/24 00:21:26;;;;;;;;;;;;;;;12.93;47.51;100842.78;4477822;32;34308;-64
2023/01/24 00:23:54;;;;;;;;;;;;;;;12.73;48.00;100841.44;4479099;32;33587;-66
2023/01/24 00:26:22;;;;;;;;;;;;;;;12.85;47.73;100844.28;4481591;32;33961;-66
2023/01/24 00:28:49;;;;;;;;;;;;;;;12.83;47.67;100844.34;4478210;32;34966;-65
2023/01/24 00:31:17;;;;;;;;;;;;;;;12.90;47.28;100848.34;4481654;32;33030;-65
2023/01/24 00:33:44;;;;;;;;;;;;;;;12.33;48.17;100845.88;4480106;32;34574;-64
2023/01/24 00:36:11;;;;;;;;;;;;;;;12.57;47.51;100846.94;4484779;32;34296;-64
2023/01/24 00:38:39;;;;;;;;;;;;;;;10.91;51.74;100852.78;4478936;32;34088;-65
2023/01/24 00:41:06;;;;;;;;;;;;;;;11.18;50.86;100852.97;4479336;32;35082;-66
2023/01/24 00:43:33;;;;;;;;;;;;;;;11.73;49.59;100851.44;4477421;32;33528;-65
2023/01/24 00:46:01;;;;;;;;;;;;;;;11.97;48.99;100857.13;4477016;32;34326;-64
2023/01/24 00:48:28;;;;;;;;;;;;;;;11.63;49.44;100856.50;4470962;32;33567;-65
2023/01/24 00:50:56;;;;;;;;;;;;;;;11.67;49.23;100855.34;4475913;32;35127;-65
2023/01/24 00:53:25;;;;;;;;;;;;;;;11.59;49.69;100857.66;4476702;32;33615;-65
2023/01/24 00:55:54;;;;;;;;;;;;;;;12.03;48.22;100859.41;4481254;32;33713;-65
2023/01/24 00:58:22;;;;;;;;;;;;;;;10.57;51.69;100864.59;4484638;32;34409;-65
2023/01/24 01:00:49;;;;;;;;;;;;;;;11.42;50.04;100872.94;4480657;32;35397;-65
2023/01/24 01:03:17;;;;;;;;;;;;;;;11.51;49.63;100871.53;4474082;32;33867;-67
2023/01/24 01:05:45;;;;;;;;;;;;;;;9.63;54.12;100866.16;4470277;32;34327;-66
2023/01/24 01:08:12;;;;;;;;;;;;;;;9.48;54.98;100867.84;4467311;32;34226;-65
2023/01/24 01:10:40;;;;;;;;;;;;;;;9.98;53.75;100881.19;4474048;32;34305;-66
2023/01/24 01:13:08;;;;;;;;;;;;;;;9.89;54.42;100870.13;4479522;32;33452;-64
2023/01/24 01:15:35;;;;;;;;;;;;;;;9.98;53.31;100873.16;4473184;32;34177;-65
2023/01/24 01:18:03;;;;;;;;;;;;;;;9.20;55.83;100879.06;4472825;32;33928;-68
2023/01/24 01:20:30;;;;;;;;;;;;;;;8.68;57.04;100881.69;4451485;32;897131;-67
2023/01/24 01:22:58;;;;;;;;;;;;;;;9.73;54.96;100886.12;4477216;32;33476;-68
2023/01/24 01:25:25;;;;;;;;;;;;;;;10.38;52.69;100887.03;4475307;31;34336;-68
2023/01/24 01:27:53;;;;;;;;;;;;;;;10.68;52.07;100884.44;4478458;32;34343;-65
2023/01/24 01:30:20;;;;;;;;;;;;;;;10.51;52.32;100881.00;4475832;32;34506;-66
2023/01/24 01:32:47;;;;;;;;;;;;;;;10.69;51.70;100888.00;4481832;32;33535;-65
2023/01/24 01:35:15;;;;;;;;;;;;;;;10.65;51.35;100884.59;4476346;32;32746;-65
2023/01/24 01:37:42;;;;;;;;;;;;;;;10.71;51.04;100875.38;4470227;32;35209;-65
2023/01/24 01:40:10;;;;;;;;;;;;;;;9.38;54.13;100882.62;4469808;32;35033;-66
2023/01/24 01:42:55;;;;;;;;;;;;;;;10.24;52.74;100885.09;4481048;32;33496;-65
2023/01/24 01:45:29;;;;;;;;;;;;;;;10.62;51.73;100884.78;4475850;32;34702;-68
2023/01/24 01:47:57;;;;;;;;;;;;;;;11.27;50.08;100889.06;4461435;31;33980;-67
2023/01/24 01:50:32;;;;;;;;;;;;;;;11.27;49.92;100889.06;4467695;32;34552;-65
2023/01/24 01:52:59;;;;;;;;;;;;;;;11.24;49.67;100895.50;4469036;32;34643;-65
2023/01/24 01:55:27;;;;;;;;;;;;;;;11.55;48.76;100901.69;4474245;32;35129;-65
2023/01/24 01:57:54;;;;;;;;;;;;;;;11.46;49.14;100899.56;4483863;32;34450;-65
2023/01/24 02:00:24;;;;;;;;;;;;;;;11.62;49.07;100903.03;4484839;32;34579;-64
2023/01/24 02:02:53;;;;;;;;;;;;;;;11.46;48.75;100896.88;4484494;32;34252;-65
2023/01/24 02:05:20;;;;;;;;;;;;;;;11.29;49.15;100900.56;4485149;32;33939;-67
2023/01/24 02:07:49;;;;;;;;;;;;;;;11.26;49.18;100896.25;4463414;32;34145;-66
2023/01/24 02:10:18;;;;;;;;;;;;;;;11.34;48.79;100898.50;4469998;32;34087;-65
2023/01/24 02:12:45;;;;;;;;;;;;;;;11.11;49.32;100898.03;4457821;32;34599;-65
2023/01/24 02:18:03;;;;;;;;;;;;;;;10.35;50.38;100902.41;4481744;32;34377;-66
2023/01/24 02:20:43;;;;;;;;;;;;;;;10.60;49.95;100905.44;4485511;32;34611;-65
2023/01/24 02:23:30;;;;;;;;;;;;;;;10.91;48.95;100909.91;4478602;32;34427;-65
2023/01/24 02:26:13;;;;;;;;;;;;;;;10.28;50.99;100907.25;4470143;32;34195;-65
2023/01/24 02:28:51;;;;;;;;;;;;;;;10.15;51.79;100908.81;4474356;32;33119;-65
2023/01/24 02:31:19;;;;;;;;;;;;;;;10.44;50.36;100908.13;4483679;32;34584;-65
2023/01/24 02:33:47;;;;;;;;;;;;;;;8.63;55.13;100906.81;4485273;32;33070;-64
2023/01/24 02:36:20;;;;;;;;;;;;;;;9.51;52.19;100907.75;4474514;32;34720;-63
2023/01/24 02:38:54;;;;;;;;;;;;;;;9.78;51.71;100906.28;4479198;32;34541;-64
2023/01/24 02:41:22;;;;;;;;;;;;;;;9.74;51.81;100910.09;4474074;32;34410;-66
2023/01/24 02:43:50;;;;;;;;;;;;;;;9.64;51.60;100910.66;4455816;32;34507;-64
2023/01/24 02:46:17;;;;;;;;;;;;;;;9.96;50.81;100911.63;4455714;32;34057;-64
2023/01/24 02:48:45;;;;;;;;;;;;;;;9.47;52.55;100915.09;4472784;32;34236;-67
2023/01/24 02:53:59;;;;;;;;;;;;;;;9.88;51.28;100914.69;4475341;32;33018;-64
2023/01/24 02:59:12;;;;;;;;;;;;;;;9.54;52.19;100919.16;4479144;32;33960;-63
2023/01/24 03:01:41;;;;;;;;;;;;;;;9.63;52.28;100916.94;4485436;32;34168;-66
2023/01/24 03:04:09;;;;;;;;;;;;;;;8.99;53.10;100921.97;4483121;32;33567;-64
2023/01/24 03:06:36;;;;;;;;;;;;;;;9.43;51.97;100926.00;4477443;32;35235;-66
2023/01/24 03:09:18;;;;;;;;;;;;;;;9.03;54.26;100930.69;4473792;32;34616;-64
2023/01/24 03:11:46;;;;;;;;;;;;;;;9.60;52.23;100933.13;4480418;32;34565;-64
2023/01/24 03:36:31;;;;;;;;;;;;;;;10.37;50.62;100941.53;4471030;32;32789;-64
2023/01/24 03:41:45;;;;;;;;;;;;;;;10.66;49.67;100945.25;4478075;32;33960;-67
2023/01/24 03:44:12;;;;;;;;;;;;;;;10.83;49.48;100940.75;4471476;32;33970;-64
2023/01/24 03:46:43;;;;;;;;;;;;;;;10.81;49.44;100938.16;4453273;32;33473;-66
2023/01/24 03:49:11;;;;;;;;;;;;;;;11.10;48.59;100938.31;4466426;31;35170;-64
2023/01/24 03:54:24;;;;;;;;;;;;;;;10.83;49.22;100941.63;4469976;32;33209;-64
2023/01/24 03:56:52;;;;;;;;;;;;;;;11.18;48.55;100944.09;4476672;32;33404;-64
2023/01/24 03:59:19;;;;;;;;;;;;;;;11.32;47.90;100940.59;4475727;31;33870;-64
2023/01/24 04:01:47;;;;;;;;;;;;;;;11.26;48.19;100939.13;4481553;32;34841;-65
2023/01/24 04:04:15;;;;;;;;;;;;;;;11.54;47.41;100942.88;4467855;32;34680;-64
2023/01/24 04:06:42;;;;;;;;;;;;;;;11.03;49.05;100942.28;4471751;32;32691;-64
2023/01/24 04:09:10;;;;;;;;;;;;;;;11.06;49.07;100942.13;4466546;32;32831;-66
2023/01/24 04:11:38;;;;;;;;;;;;;;;11.28;48.14;100942.59;4468316;32;33062;-64
2023/01/24 04:14:07;;;;;;;;;;;;;;;11.29;47.95;100938.94;4477832;32;34512;-65
2023/01/24 04:16:35;;;;;;;;;;;;;;;11.11;48.06;100946.28;4478727;32;33424;-66
2023/01/24 04:19:03;;;;;;;;;;;;;;;11.16;48.76;100943.31;4471858;32;34980;-67
2023/01/24 04:21:30;;;;;;;;;;;;;;;10.75;49.11;100945.69;4481387;32;34335;-67
2023/01/24 04:23:57;;;;;;;;;;;;;;;11.23;47.53;100944.66;4474178;32;35259;-66
2023/01/24 04:26:25;;;;;;;;;;;;;;;11.16;48.07;100946.00;4469629;31;32894;-65
2023/01/24 04:28:53;;;;;;;;;;;;;;;11.16;48.01;100946.00;4470029;32;34275;-65
2023/01/24 04:31:21;;;;;;;;;;;;;;;11.40;47.02;100944.56;4474658;32;34038;-65
2023/01/24 04:33:50;;;;;;;;;;;;;;;11.33;47.48;100945.87;4472321;32;34422;-66
2023/01/24 04:36:17;;;;;;;;;;;;;;;11.39;47.24;100937.44;4481084;32;34294;-65
2023/01/24 04:38:44;;;;;;;;;;;;;;;11.55;46.87;100942.75;4469068;32;34332;-66
2023/01/24 04:41:13;;;;;;;;;;;;;;;11.57;46.74;100945.37;4477893;32;33967;-66
2023/01/24 04:43:41;;;;;;;;;;;;;;;11.53;46.91;100947.38;4465551;32;34654;-65
2023/01/24 04:46:09;;;;;;;;;;;;;;;11.67;46.89;100951.91;4476905;32;33502;-65
2023/01/24 04:48:38;;;;;;;;;;;;;;;11.81;46.14;100949.28;4470597;32;35300;-66
2023/01/24 04:51:05;;;;;;;;;;;;;;;11.75;46.58;100954.09;4467656;32;33996;-67
2023/01/24 04:53:35;;;;;;;;;;;;;;;11.85;46.44;100953.50;4467295;32;34967;-67
2023/01/24 04:56:03;;;;;;;;;;;;;;;11.82;46.48;100963.53;4468638;32;33324;-68
2023/01/24 04:58:31;;;;;;;;;;;;;;;12.05;45.74;100954.97;4478927;32;34522;-65
2023/01/24 05:00:59;;;;;;;;;;;;;;;12.12;45.20;100967.03;4478907;32;35255;-65
2023/01/24 05:03:28;;;;;;;;;;;;;;;11.97;46.13;100965.28;4475708;32;34445;-66
2023/01/24 05:05:56;;;;;;;;;;;;;;;11.99;46.13;100970.59;4471661;32;33612;-64
2023/01/24 05:08:23;;;;;;;;;;;;;;;11.98;46.33;100972.41;4475619;32;34086;-65
2023/01/24 05:10:50;;;;;;;;;;;;;;;12.14;45.95;100968.78;4469912;32;34513;-64
2023/01/24 05:13:17;;;;;;;;;;;;;;;12.12;45.95;100969.72;4480716;32;34679;-66
2023/01/24 05:15:48;;;;;;;;;;;;;;;12.17;45.54;100969.47;4476456;31;33130;-64
2023/01/24 05:18:17;;;;;;;;;;;;;;;12.03;46.40;100969.44;4483427;32;34111;-66
2023/01/24 05:20:44;;;;;;;;;;;;;;;11.99;46.80;100978.63;4469273;32;34465;-69
2023/01/24 05:23:12;;;;;;;;;;;;;;;12.05;46.15;100978.25;4476791;32;34238;-67
2023/01/24 05:25:40;;;;;;;;;;;;;;;12.14;45.61;100977.69;4472647;32;33723;-67
2023/01/24 05:28:07;;;;;;;;;;;;;;;12.06;45.79;100978.16;4481000;32;34977;-67
2023/01/24 05:30:35;;;;;;;;;;;;;;;11.98;46.21;100975.09;4480845;32;34441;-66
2023/01/24 05:33:03;;;;;;;;;;;;;;;11.93;46.61;100973.63;4468413;32;34017;-64
2023/01/24 05:35:31;;;;;;;;;;;;;;;12.01;46.13;100980.28;4484159;32;33747;-64
2023/01/24 05:37:59;;;;;;;;;;;;;;;11.90;46.82;100974.69;4472390;32;34216;-64
2023/01/24 05:40:27;;;;;;;;;;;;;;;11.95;46.46;100969.91;4472079;32;34218;-65
2023/01/24 05:42:55;;;;;;;;;;;;;;;12.01;46.22;100974.91;4471961;32;34526;-64
2023/01/24 05:45:22;;;;;;;;;;;;;;;11.99;46.35;100978.63;4481664;32;33254;-65
2023/01/24 05:47:52;;;;;;;;;;;;;;;12.01;46.35;100979.41;4476459;32;35337;-66
2023/01/24 05:50:19;;;;;;;;;;;;;;;12.01;46.08;100976.72;4471774;31;34547;-65
2023/01/24 05:53:07;;;;;;;;;;;;;;;12.01;46.08;100980.28;4470481;32;33059;-64
2023/01/24 05:55:34;;;;;;;;;;;;;;;11.88;46.60;100980.16;4480675;32;34174;-65
2023/01/24 05:58:01;;;;;;;;;;;;;;;12.09;45.57;100985.16;4467513;32;32654;-65
2023/01/24 06:00:29;;;;;;;;;;;;;;;11.95;46.30;100986.00;4475981;31;34762;-66
2023/01/24 06:03:02;;;;;;;;;;;;;;;12.02;45.73;100986.50;4472294;31;34551;-65
2023/01/24 06:05:30;;;;;;;;;;;;;;;12.02;45.54;100989.19;4480628;31;33540;-66
2023/01/24 06:07:57;;;;;;;;;;;;;;;11.86;46.11;100984.75;4476060;32;34049;-67
2023/01/24 06:10:24;;;;;;;;;;;;;;;11.94;46.00;100995.03;4479474;32;34428;-64
2023/01/24 06:12:52;;;;;;;;;;;;;;;11.81;46.22;100992.19;4469924;32;34362;-64
2023/01/24 06:15:19;;;;;;;;;;;;;;;11.87;46.10;100993.66;4477556;32;33300;-65
2023/01/24 06:17:47;;;;;;;;;;;;;;;11.82;46.18;100993.03;4478389;32;34390;-65
2023/01/24 06:20:16;;;;;;;;;;;;;;;11.84;46.15;100997.38;4477083;32;34269;-65
2023/01/24 06:22:53;;;;;;;;;;;;;;;11.77;46.08;100996.00;4483482;32;35500;-64
2023/01/24 06:25:22;;;;;;;;;;;;;;;11.75;46.00;101005.06;4477013;32;33901;-65
2023/01/24 06:27:50;;;;;;;;;;;;;;;11.66;46.09;101004.69;4471201;32;34937;-66
2023/01/24 06:30:18;;;;;;;;;;;;;;;11.49;46.67;101009.28;4473599;32;35423;-66
2023/01/24 06:32:45;;;;;;;;;;;;;;;11.58;46.47;101009.63;4473774;32;32589;-63
2023/01/24 06:35:25;;;;;;;;;;;;;;;11.56;46.46;101010.69;4479075;32;34302;-64
2023/01/24 06:37:52;;;;;;;;;;;;;;;11.46;46.61;101013.03;4473897;32;33923;-67
2023/01/24 06:40:23;;;;;;;;;;;;;;;11.41;46.84;101013.28;4472698;32;34365;-64
2023/01/24 06:42:51;;;;;;;;;;;;;;;11.55;46.61;101015.16;4472764;32;34489;-63
2023/01/24 06:45:18;;;;;;;;;;;;;;;11.46;46.80;101013.03;4474823;32;34590;-64
2023/01/24 06:47:46;;;;;;;;;;;;;;;11.69;46.15;101009.00;4482161;32;34328;-63
2023/01/24 06:50:14;;;;;;;;;;;;;;;11.55;46.59;101008.94;4471652;32;34088;-63
2023/01/24 06:52:44;;;;;;;;;;;;;;;11.78;45.84;101011.16;4475224;32;35201;-64
2023/01/24 06:55:11;;;;;;;;;;;;;;;11.73;45.89;101017.72;4475709;32;33861;-64
2023/01/24 06:57:38;;;;;;;;;;;;;;;11.60;46.54;101017.59;4475679;32;34107;-64
2023/01/24 07:00:06;;;;;;;;;;;;;;;11.71;46.37;101015.12;4472011;31;34296;-65
2023/01/24 07:02:34;;;;;;;;;;;;;;;11.87;45.63;101015.97;4474127;32;34841;-64
2023/01/24 07:05:01;;;;;;;;;;;;;;;11.80;46.04;101019.94;4478354;32;33637;-64
2023/01/24 07:07:29;;;;;;;;;;;;;;;12.13;45.68;101024.25;4477347;32;34007;-64
2023/01/24 07:09:56;;;;;;;;;;;;;;;12.61;43.82;101032.94;4485396;32;35023;-66
2023/01/24 07:12:23;;;;;;;;;;;;;;;12.67;43.97;101021.78;4479956;32;34212;-64
2023/01/24 07:14:50;;;;;;;;;;;;;;;12.86;43.18;101024.19;4483581;32;33815;-64
2023/01/24 07:17:18;;;;;;;;;;;;;;;13.03;43.04;101025.78;4484226;32;35100;-63
2023/01/24 07:19:45;;;;;;;;;;;;;;;13.38;42.15;101028.03;4482480;32;34157;-63
2023/01/24 07:22:13;;;;;;;;;;;;;;;13.53;42.39;101024.31;4473170;32;34377;-63
2023/01/24 07:24:41;;;;;;;;;;;;;;;14.08;41.13;101027.78;4480012;32;33819;-64
2023/01/24 07:27:09;;;;;;;;;;;;;;;14.80;39.54;101020.00;4456798;32;34066;-61
2023/01/24 07:29:37;;;;;;;;;;;;;;;15.19;38.94;101026.19;4477686;32;35158;-65
2023/01/24 07:32:04;;;;;;;;;;;;;;;15.90;37.28;101027.16;4478821;32;33462;-65
2023/01/24 07:34:32;;;;;;;;;;;;;;;15.95;37.25;101030.34;4477370;32;33607;-65
2023/01/24 07:36:59;;;;;;;;;;;;;;;16.13;37.26;101033.50;4477834;32;34003;-66
2023/01/24 07:39:27;;;;;;;;;;;;;;;16.52;36.46;101041.16;4472260;32;35519;-66
2023/01/24 07:41:56;;;;;;;;;;;;;;;16.69;36.54;101038.94;4474692;32;34769;-66
2023/01/24 07:44:23;;;;;;;;;;;;;;;16.96;35.39;101050.31;4484496;32;32257;-65
2023/01/24 07:46:51;;;;;;;;;;;;;;;16.18;36.95;101042.97;4477642;32;34937;-65
2023/01/24 07:49:18;;;;;;;;;;;;;;;15.56;38.33;101044.03;4481948;32;32742;-66
2023/01/24 07:51:48;;;;;;;;;;;;;;;15.65;37.74;101041.63;4473117;32;35505;-67
2023/01/24 07:54:18;;;;;;;;;;;;;;;15.52;38.30;101049.78;4478554;32;33582;-71
2023/01/24 07:56:45;;;;;;;;;;;;;;;15.35;38.94;101056.44;4470479;32;34329;-73
2023/01/24 07:59:13;;;;;;;;;;;;;;;15.21;39.34;101051.19;4474756;32;34317;-74
2023/01/24 08:01:41;;;;;;;;;;;;;;;15.26;38.36;101059.81;4471159;32;34716;-72
2023/01/24 08:04:09;;;;;;;;;;;;;;;15.02;39.27;101062.47;4469794;32;33705;-64
2023/01/24 08:06:36;;;;;;;;;;;;;;;14.54;39.93;101073.97;4475387;31;33204;-66
2023/01/24 08:09:03;;;;;;;;;;;;;;;14.53;39.94;101068.66;4467494;32;34187;-65
2023/01/24 08:11:31;;;;;;;;;;;;;;;14.38;40.53;101073.25;4477209;32;34695;-66
2023/01/24 08:13:58;;;;;;;;;;;;;;;14.47;40.77;101077.13;4472026;32;33217;-66
2023/01/24 08:16:26;;;;;;;;;;;;;;;14.37;41.48;101083.16;4474085;32;34522;-66
2023/01/24 08:18:53;;;;;;;;;;;;;;;14.54;41.09;101073.06;4470840;32;35355;-66
2023/01/24 08:21:20;;;;;;;;;;;;;;;14.67;40.81;101082.03;4471597;32;34231;-67
2023/01/24 08:23:48;;;;;;;;;;;;;;;15.05;39.92;101073.87;4481044;32;34646;-65
2023/01/24 08:26:15;;;;;;;;;;;;;;;15.63;39.33;101076.81;4478339;31;34418;-65
2023/01/24 08:28:42;;;;;;;;;;;;;;;16.14;38.50;101081.13;4473651;32;35804;-68
2023/01/24 08:31:10;;;;;;;;;;;;;;;16.05;38.17;101080.87;4481148;32;34517;-67
2023/01/24 08:33:38;;;;;;;;;;;;;;;16.08;38.33;101085.16;4473768;31;34103;-65
2023/01/24 08:36:05;;;;;;;;;;;;;;;16.14;38.17;101086.53;4471107;32;33993;-65
2023/01/24 08:38:32;;;;;;;;;;;;;;;16.11;38.18;101087.59;4478521;32;34120;-66
2023/01/24 08:41:03;;;;;;;;;;;;;;;16.07;38.41;101083.44;4473354;32;34416;-67
2023/01/24 08:43:33;;;;;;;;;;;;;;;16.00;38.88;101087.59;4467918;32;33204;-67
2023/01/24 08:46:01;;;;;;;;;;;;;;;15.84;39.41;101086.03;4473645;31;33915;-66
2023/01/24 08:48:28;;;;;;;;;;;;;;;15.88;39.67;101083.12;4473081;32;35321;-68
2023/01/24 08:50:55;;;;;;;;;;;;;;;16.46;37.61;101084.87;4471501;32;35193;-67
2023/01/24 08:53:23;;;;;;;;;;;;;;;16.50;37.54;101086.38;4471517;32;33915;-67
2023/01/24 08:55:51;;;;;;;;;;;;;;;16.85;36.60;101088.16;4474351;32;33640;-69
2023/01/24 08:58:18;;;;;;;;;;;;;;;16.82;37.33;101096.53;4479012;32;34248;-65
2023/01/24 09:00:46;;;;;;;;;;;;;;;17.06;36.74;101087.44;4469235;32;34458;-66
2023/01/24 09:03:14;;;;;;;;;;;;;;;17.08;37.11;101090.84;4480826;32;34727;-69
2023/01/24 09:05:42;;;;;;;;;;;;;;;17.54;35.67;101089.81;4460052;32;34018;-66
2023/01/24 09:08:09;;;;;;;;;;;;;;;17.29;35.89;101089.09;4480107;31;34407;-66
2023/01/24 09:10:37;;;;;;;;;;;;;;;17.22;36.20;101094.16;4474028;32;35294;-66
2023/01/24 09:13:06;;;;;;;;;;;;;;;17.65;35.15;101093.31;4466752;32;33691;-66
2023/01/24 09:15:34;;;;;;;;;;;;;;;17.46;35.62;101096.72;4473874;32;33983;-67
2023/01/24 09:18:02;;;;;;;;;;;;;;;17.36;35.54;101095.72;4468583;32;34104;-66
2023/01/24 09:20:29;;;;;;;;;;;;;;;17.36;35.48;101089.47;4475343;32;33848;-68
2023/01/24 09:22:57;;;;;;;;;;;;;;;17.36;36.32;101090.31;4474065;32;33627;-67
2023/01/24 09:25:24;;;;;;;;;;;;;;;17.60;35.10;101094.72;4471119;32;33873;-66
2023/01/24 09:27:52;;;;;;;;;;;;;;;17.82;35.42;101091.13;4470822;32;34019;-66
2023/01/24 09:30:21;;;;;;;;;;;;;;;18.13;35.23;101087.50;4468772;31;34170;-66
2023/01/24 09:32:49;;;;;;;;;;;;;;;18.25;34.73;101093.75;4474625;31;33841;-65
2023/01/24 09:35:16;;;;;;;;;;;;;;;18.12;35.08;101090.38;4480219;31;34474;-67
2023/01/24 09:37:44;;;;;;;;;;;;;;;18.04;35.13;101084.72;4472098;32;35120;-67
2023/01/24 09:40:19;;;;;;;;;;;;;;;17.87;35.47;101083.44;4479977;32;35138;-68
2023/01/24 09:42:57;;;;;;;;;;;;;;;16.80;37.31;101094.94;4467848;32;34057;-66
2023/01/24 09:45:39;;;;;;;;;;;;;;;17.17;36.63;101076.56;4465957;32;34712;-66
2023/01/24 09:48:11;;;;;;;;;;;;;;;17.10;36.99;101083.47;4456089;32;33968;-66
2023/01/24 09:51:04;;;;;;;;;;;;;;;16.95;36.93;101080.16;4471442;32;34620;-66
2023/01/24 09:53:36;;;;;;;;;;;;;;;16.88;36.89;101074.37;4466087;32;34548;-66
2023/01/24 09:56:05;;;;;;;;;;;;;;;16.61;37.74;101080.13;4460668;32;33018;-67
2023/01/24 09:58:33;;;;;;;;;;;;;;;16.73;37.82;101083.72;4478327;32;35249;-67
2023/01/24 10:01:01;;;;;;;;;;;;;;;16.65;37.71;101078.03;4463010;32;33255;-66
2023/01/24 10:03:29;;;;;;;;;;;;;;;16.61;37.86;101072.00;4475118;32;34686;-66
2023/01/24 10:05:58;;;;;;;;;;;;;;;16.65;37.92;101075.34;4476143;32;34090;-66
2023/01/24 10:08:37;;;;;;;;;;;;;;;17.12;37.14;101065.28;4463135;32;35308;-65
2023/01/24 10:11:14;;;;;;;;;;;;;;;17.38;36.26;101057.75;4458472;32;33580;-66
2023/01/24 10:13:44;;;;;;;;;;;;;;;17.70;35.35;101057.75;4481427;31;34388;-65
2023/01/24 10:16:15;;;;;;;;;;;;;;;17.52;35.84;101060.16;4487674;31;33339;-65
2023/01/24 10:18:48;;;;;;;;;;;;;;;17.65;35.74;101057.28;4480482;31;33419;-64
2023/01/24 10:21:24;;;;;;;;;;;;;;;17.16;36.67;101056.78;4480121;32;35632;-65
2023/01/24 10:23:53;;;;;;;;;;;;;;;17.30;35.76;101046.66;4482743;32;33673;-63
2023/01/24 10:26:22;;;;;;;;;;;;;;;17.36;34.95;101049.72;4474953;32;34019;-63
2023/01/24 10:28:50;;;;;;;;;;;;;;;17.40;34.93;101047.66;4476794;32;34457;-64
2023/01/24 10:31:30;;;;;;;;;;;;;;;17.39;35.45;101033.25;4469786;32;34556;-64
2023/01/24 10:33:59;;;;;;;;;;;;;;;17.39;35.69;101035.94;4456567;32;33573;-64
2023/01/24 10:36:37;;;;;;;;;;;;;;;17.07;35.38;101046.72;4460685;32;34053;-64
2023/01/24 10:39:05;;;;;;;;;;;;;;;16.54;36.08;101057.28;4472194;32;35207;-64
2023/01/24 10:41:32;;;;;;;;;;;;;;;16.61;35.96;101065.75;4467981;32;34462;-64
2023/01/24 10:44:01;;;;;;;;;;;;;;;16.34;36.33;101057.97;4471628;32;33298;-67
2023/01/24 10:46:47;;;;;;;;;;;;;;;16.16;36.81;101052.16;4472730;32;34373;-67
2023/01/24 10:49:47;;;;;;;;;;;;;;;16.23;36.92;101040.75;4470658;32;34489;-64
2023/01/24 10:52:18;;;;;;;;;;;;;;;16.51;36.64;101049.41;4425187;32;33841;-64
2023/01/24 10:54:46;;;;;;;;;;;;;;;16.75;36.11;101044.75;4478382;32;33533;-65
2023/01/24 10:57:23;;;;;;;;;;;;;;;16.88;36.14;101038.38;4471721;32;35427;-67
2023/01/24 10:59:50;;;;;;;;;;;;;;;16.92;35.47;101042.56;4460441;32;34431;-66
2023/01/24 11:02:22;;;;;;;;;;;;;;;16.69;36.05;101037.13;4478218;32;34412;-66
2023/01/24 11:04:52;;;;;;;;;;;;;;;16.67;35.78;101032.84;4484540;32;33753;-66
2023/01/24 11:07:25;;;;;;;;;;;;;;;16.67;35.52;101024.72;4483659;32;34441;-66
2023/01/24 11:09:53;;;;;;;;;;;;;;;16.65;35.07;101014.00;4466760;32;34176;-65
2023/01/24 11:12:21;;;;;;;;;;;;;;;16.26;35.91;101013.50;4478374;31;34442;-67
2023/01/24 11:14:48;;;;;;;;;;;;;;;16.64;35.13;101016.84;4468419;32;34306;-66
2023/01/24 11:17:32;;;;;;;;;;;;;;;16.58;35.09;101007.38;4469555;32;34932;-66
2023/01/24 11:20:00;;;;;;;;;;;;;;;16.69;34.45;101009.22;4465173;32;34372;-65
2023/01/24 11:22:35;;;;;;;;;;;;;;;16.70;35.23;101005.56;4475105;31;33102;-65
2023/01/24 11:25:03;;;;;;;;;;;;;;;16.51;35.49;100998.06;4469901;32;33838;-65
2023/01/24 11:27:31;;;;;;;;;;;;;;;16.65;34.54;101000.50;4480409;32;33804;-68
2023/01/24 11:30:06;;;;;;;;;;;;;;;16.66;35.10;100998.66;4485195;32;34363;-67
2023/01/24 11:32:37;;;;;;;;;;;;;;;16.83;33.86;100998.19;4468581;32;34680;-65
2023/01/24 11:35:04;;;;;;;;;;;;;;;16.41;35.17;100989.81;4459597;32;34690;-65
2023/01/24 11:37:50;;;;;;;;;;;;;;;16.38;35.33;100990.06;4469138;32;34221;-64
2023/01/24 11:40:20;;;;;;;;;;;;;;;16.41;35.57;100983.56;4469457;32;34495;-65
2023/01/24 11:43:00;;;;;;;;;;;;;;;16.02;37.51;100981.19;4463223;32;34539;-65
2023/01/24 11:45:37;;;;;;;;;;;;;;;16.08;38.06;100982.50;4459804;32;33826;-64
2023/01/24 11:48:04;;;;;;;;;;;;;;;15.89;39.04;100980.41;4477378;32;34031;-64
2023/01/24 11:50:50;;;;;;;;;;;;;;;15.95;39.37;100977.22;4467498;32;35488;-66
2023/01/24 11:53:38;;;;;;;;;;;;;;;15.97;39.75;100977.09;4474438;32;34796;-64
2023/01/24 11:56:08;;;;;;;;;;;;;;;15.91;40.23;100973.03;4484153;32;33489;-64
2023/01/24 11:58:56;;;;;;;;;;;;;;;15.71;40.75;100979.13;4480831;32;34865;-65
2023/01/24 12:01:27;;;;;;;;;;;;;;;15.62;41.15;100980.66;4470576;31;34342;-65
2023/01/24 12:04:13;;;;;;;;;;;;;;;15.28;42.19;100971.53;4478872;32;34832;-67
2023/01/24 12:06:46;;;;;;;;;;;;;;;15.17;42.58;100976.91;4477947;32;34536;-66
2023/01/24 12:09:17;;;;;;;;;;;;;;;15.07;43.05;100976.72;4474302;32;34322;-65
2023/01/24 12:11:48;;;;;;;;;;;;;;;15.20;42.70;100982.06;4470412;32;35424;-65
2023/01/24 12:14:22;;;;;;;;;;;;;;;15.03;43.56;100964.44;4469362;32;33839;-65
2023/01/24 12:16:50;;;;;;;;;;;;;;;15.08;43.34;100960.41;4483505;32;33510;-67
2023/01/24 12:19:36;;;;;;;;;;;;;;;15.03;42.85;100961.75;4484331;31;34415;-66
2023/01/24 12:22:08;;;;;;;;;;;;;;;14.82;43.25;100970.41;4475390;32;34258;-65
2023/01/24 12:24:37;;;;;;;;;;;;;;;14.82;43.17;100972.25;4456995;32;34222;-66
2023/01/24 12:27:14;;;;;;;;;;;;;;;14.94;42.79;100962.44;4474734;32;34125;-65
2023/01/24 12:29:43;;;;;;;;;;;;;;;14.81;43.34;100967.84;4474758;32;34990;-65
2023/01/24 12:32:17;;;;;;;;;;;;;;;14.96;42.62;100964.03;4453561;32;34441;-65
2023/01/24 12:34:45;;;;;;;;;;;;;;;14.78;43.12;100963.53;4481089;32;33938;-65
2023/01/24 12:37:31;;;;;;;;;;;;;;;14.96;42.74;100968.53;4480497;32;33709;-66
2023/01/24 12:40:15;;;;;;;;;;;;;;;14.75;42.76;100969.16;4481855;31;35347;-65
2023/01/24 12:42:52;;;;;;;;;;;;;;;14.57;43.12;100960.56;4469819;32;34956;-65
2023/01/24 12:45:20;;;;;;;;;;;;;;;14.67;43.09;100960.78;4480573;32;34659;-65
2023/01/24 12:47:50;;;;;;;;;;;;;;;14.68;42.71;100957.09;4476476;31;33901;-65
2023/01/24 12:50:36;;;;;;;;;;;;;;;14.78;42.44;100951.91;4455512;32;33998;-66
2023/01/24 12:53:06;;;;;;;;;;;;;;;14.76;42.73;100953.84;4478184;32;34037;-66
2023/01/24 12:55:39;;;;;;;;;;;;;;;14.72;42.57;100960.44;4481199;32;34552;-66
2023/01/24 12:58:18;;;;;;;;;;;;;;;14.78;42.49;100963.53;4460092;32;33839;-65
2023/01/24 13:01:01;;;;;;;;;;;;;;;14.70;42.72;100954.28;4470604;32;34079;-66
2023/01/24 13:03:46;;;;;;;;;;;;;;;14.60;42.85;100964.88;4467314;32;34456;-66
2023/01/24 13:06:17;;;;;;;;;;;;;;;14.62;42.98;100968.31;4467246;32;34486;-67
2023/01/24 13:08:47;;;;;;;;;;;;;;;14.57;43.15;100959.69;4478272;32;34046;-64
2023/01/24 13:11:18;;;;;;;;;;;;;;;14.24;44.14;100976.41;4471772;32;32961;-67
2023/01/24 13:13:49;;;;;;;;;;;;;;;14.15;43.95;100962.63;4469609;32;35059;-66
2023/01/24 13:16:49;;;;;;;;;;;;;;;14.04;44.26;100962.53;4453711;32;33624;-67
2023/01/24 13:19:22;;;;;;;;;;;;;;;14.18;44.33;100964.25;4440059;32;33415;-65
2023/01/24 13:22:10;;;;;;;;;;;;;;;14.38;44.15;100965.50;4471746;32;34151;-66
2023/01/24 13:24:40;;;;;;;;;;;;;;;14.32;44.37;100966.84;4477306;32;34344;-66
2023/01/24 13:27:13;;;;;;;;;;;;;;;14.18;44.74;100962.41;4457115;32;33834;-66
2023/01/24 13:29:44;;;;;;;;;;;;;;;14.25;44.90;100961.97;4463845;32;33713;-68